• Join FlightAware (Why Join?)
  • Login
  • US Flag 
11:47AM EDT


 

Airport Tracker/Info


-or-


 

Live Flight TrackerFlight Track Log ✈ AFR667 ✈ 28-Apr-2012 ✈ KORD - LFPG / CDG

Flight Track Log - Related Links

Times and Time Zones

All times are in EDT time to prevent confusion due to time zone crossing. See the AFR667 flight status page for this flight to view local times or setup timezone preferences in your user account.

Time Position Orientation Groundspeed Altitude Reporting Facility
EDT Latitude Longitude Course Direction KTS MPH feet Rate Location/Type
06:11PM 42.2597 -87.0876 247° West  Level FlightAware Approximate
06:12PM 42.2833 -86.9203 250° West  Level FlightAware Approximate
06:13PM 42.2834 -86.7480 253° West  Level FlightAware Approximate
06:14PM 42.2887 -86.5760 255° West  Level FlightAware Approximate
06:15PM 42.3117 -86.4064 255° West  Level FlightAware Approximate
06:16PM 42.3000 -86.2390 257° West  Level FlightAware Approximate
06:17PM 42.3000 -86.0666 259° West  Level FlightAware Approximate
06:18PM 42.3261 -85.8979 259° West  Level FlightAware Approximate
06:19PM 42.3521 -85.7290 259° West  Level FlightAware Approximate
06:20PM 42.3000 -85.5727 261° West  Level FlightAware Approximate
06:21PM 42.3311 -85.4054 261° West  Level FlightAware Approximate
06:22PM 42.3000 -85.2425 263° West  Level FlightAware Approximate
06:23PM 42.3000 -85.0701 263° West  Level FlightAware Approximate
06:24PM 42.3030 -84.8980 264° West  Level FlightAware Approximate
06:25PM 42.3486 -84.7370 263° West  Level FlightAware Approximate
06:26PM 42.3940 -84.5757 262° West  Level FlightAware Approximate
06:27PM 42.4391 -84.4142 262° West  Level FlightAware Approximate
06:28PM 42.4840 -84.2524 261° West  Level FlightAware Approximate
06:29PM 42.5287 -84.0905 261° West  Level FlightAware Approximate
06:30PM 42.5731 -83.9283 261° West  Level FlightAware Approximate
06:31PM 42.6174 -83.7658 260° West  Level FlightAware Approximate
06:32PM 42.6620 -83.6035 260° West  Level FlightAware Approximate
06:33PM 42.7064 -83.4409 260° West  Level FlightAware Approximate
06:33PM 42.0167 -87.8667 66° East 147 169 2,900  Level Chicago TRACON
06:34PM 42.0333 -87.8167 63° Northeast 151 174 4,100 1,620 Climbing Chicago TRACON
06:37PM 42.0961 -87.6514 68° East 216 249 8,200 1,860 Climbing Chicago Center
06:38PM 42.1258 -87.5497 68° East 258 297 10,200 1,500 Climbing Chicago Center
06:39PM 42.1614 -87.4283 66° East 300 345 11,300 1,620 Climbing Chicago Center
06:40PM 42.2050 -87.2981 84° East 348 400 13,500 2,220 Climbing Chicago Center
06:41PM 42.2167 -87.1406 86° East 416 479 15,800 2,280 Climbing Chicago Center
06:42PM 42.2239 -86.9806 86° East 428 493 18,100 2,040 Climbing Chicago Center
06:43PM 42.2328 -86.8119 87° East 433 498 19,900 1,620 Climbing Chicago Center
06:44PM 42.2378 -86.6603 86° East 444 511 21,400 1,620 Climbing Chicago Center
06:45PM 42.2458 -86.4831 87° East 455 524 23,200 1,800 Climbing Chicago Center
06:46PM 42.2517 -86.3033 87° East 471 542 25,000 1,620 Climbing Chicago Center
06:47PM 42.2592 -86.1233 86° East 476 548 26,500 1,440 Climbing Chicago Center
06:48PM 42.2683 -85.9350 87° East 486 559 27,900 1,260 Climbing Chicago Center
06:49PM 42.2750 -85.7436 87° East 492 566 29,100 1,200 Climbing Chicago Center
06:50PM 42.2814 -85.5522 87° East 503 579 30,300 1,380 Climbing Chicago Center
06:51PM 42.2894 -85.3581 89° East 508 585 31,900 1,320 Climbing Chicago Center
06:52PM 42.2933 -85.1228 85° East 524 603 33,200 1,020 Climbing Cleveland Center
06:53PM 42.3047 -84.9353 84° East 509 586 34,100 900 Climbing Cleveland Center
06:54PM 42.3203 -84.7453 85° East 509 586 35,100 780 Climbing Cleveland Center
06:55PM 42.3306 -84.5719 83° East 509 586 35,700 480 Climbing Cleveland Center
06:56PM 42.3472 -84.3847 84° East 504 580 36,100 360 Climbing Cleveland Center
06:57PM 42.3619 -84.1917 83° East 504 580 36,500 360 Climbing Cleveland Center
06:58PM 42.3783 -83.9958 84° East 516 594 36,900 180 Climbing Cleveland Center
06:59PM 42.3922 -83.7997 81° East 521 600 36,900  Level Cleveland Center
07:00PM 42.4169 -83.5814 72° East 521 600 37,000  Climbing Cleveland Center
07:01PM 42.4636 -83.3894 71° East 526 605 37,000  Level Cleveland Center
07:02PM 42.5094 -83.2056 70° East 521 600 37,000  Level Cleveland Center
07:03PM 42.5594 -83.0214 70° East 521 600 37,000  Level Cleveland Center
07:04PM 42.6092 -82.8317 71° East 521 600 37,000  Level Cleveland Center
07:05PM 42.6497 -82.6664 70° East 521 600 37,000  Level Cleveland Center
07:06PM 42.7008 -82.4789 71° East 516 594 37,000  Level Cleveland Center
07:07PM 42.7478 -82.2908 71° East 521 600 37,000  Level Cleveland Center
07:08PM 42.7942 -82.1025 71° East 521 600 37,000 -60 Level Cleveland Center
07:09PM 42.8400 -81.9169 72° East 515 593 36,900  Descending Cleveland Center
07:10PM 42.9000 -81.6667 72° East 520 598 37,000  Climbing Toronto Center
07:11PM 42.9500 -81.4500 76° East 530 610 37,000  Level Toronto Center
07:12PM 42.9833 -81.2667 68° East 520 598 37,000  Level Toronto Center
07:13PM 43.0333 -81.1000 61° Northeast 520 598 37,000  Level Toronto Center
07:14PM 43.1000 -80.9333 53° Northeast 520 598 37,000  Level Toronto Center
07:15PM 43.2000 -80.7500 63° Northeast 520 598 37,000  Level Toronto Center
07:16PM 43.2667 -80.5667 59° Northeast 520 598 37,000  Level Toronto Center
07:17PM 43.3333 -80.4167 63° Northeast 520 598 37,000  Level Toronto Center
07:18PM 43.4000 -80.2333 63° Northeast 520 598 37,000  Level Toronto Center
07:19PM 43.4667 -80.0500 61° Northeast 520 598 37,000  Level Toronto Center
07:20PM 43.5333 -79.8833 58° Northeast 520 598 37,000  Level Toronto Center
07:21PM 43.6167 -79.7000 69° East 520 598 37,000  Level Toronto Center
07:22PM 43.6667 -79.5167 69° East 520 598 37,000  Level Toronto Center
07:23PM 43.7167 -79.3333 69° East 520 598 37,000  Level Toronto Center
07:24PM 43.7667 -79.1500 69° East 530 610 37,000  Level Toronto Center
07:25PM 43.8167 -78.9667 67° East 530 610 37,000  Level Toronto Center
07:26PM 43.8833 -78.7500 69° East 530 610 37,000  Level Toronto Center
07:27PM 43.9333 -78.5667 69° East 530 610 37,000  Level Toronto Center
07:28PM 43.9833 -78.3833 69° East 530 610 37,000  Level Toronto Center
07:29PM 44.0333 -78.2000 65° Northeast 530 610 37,000  Level Toronto Center
07:30PM 44.1000 -78.0000 59° Northeast 540 621 37,000  Level Toronto Center
07:31PM 44.1500 -77.8833 72° East 540 621 37,000  Level Montreal Center
07:32PM 44.2000 -77.6667 63° Northeast 540 621 37,000  Level Montreal Center
07:33PM 44.2667 -77.4833 63° Northeast 540 621 37,000  Level Montreal Center
07:34PM 44.3333 -77.3000 69° East 530 610 37,000  Level Montreal Center
07:35PM 44.3833 -77.1167 69° East 530 610 37,000  Level Montreal Center
07:36PM 44.4333 -76.9333 67° East 530 610 37,000  Level Montreal Center
07:37PM 44.5000 -76.7167 67° East 520 598 37,000  Level Montreal Center
07:38PM 44.5500 -76.5500 71° East 520 598 37,000  Level Montreal Center
07:39PM 44.6000 -76.3500 65° Northeast 520 598 37,000  Level Montreal Center
07:40PM 44.6667 -76.1500 65° Northeast 520 598 37,000  Level Montreal Center
07:41PM 44.7167 -76.0000 72° East 520 598 37,000  Level Montreal Center
07:42PM 44.7667 -75.7833 71° East 520 598 37,000  Level Montreal Center
07:43PM 44.8167 -75.5833 63° Northeast 520 598 37,000  Level Montreal Center
07:44PM 44.8833 -75.4000 69° East 520 598 37,000  Level Montreal Center
07:45PM 44.9333 -75.2167 70° East 530 610 37,000  Level Montreal Center
07:46PM 44.9833 -75.0167 63° Northeast 530 610 37,000  Level Montreal Center
07:47PM 45.0500 -74.8333 72° East 530 610 37,000  Level Montreal Center
07:48PM 45.1000 -74.6167 70° East 530 610 37,000  Level Montreal Center
07:49PM 45.1500 -74.4167 69° East 530 610 37,000  Level Montreal Center
07:50PM 45.2000 -74.2333 70° East 530 610 37,000  Level Montreal Center
07:51PM 45.2500 -74.0333 69° East 530 610 37,000  Level Montreal Center
07:52PM 45.3000 -73.8500 66° East 530 610 37,000  Level Montreal Center
07:53PM 45.3667 -73.6333 70° East 530 610 37,000  Level Montreal Center
07:54PM 45.4167 -73.4333 69° East 530 610 37,000  Level Montreal Center
07:55PM 45.4667 -73.2500 70° East 530 610 37,000  Level Montreal Center
07:56PM 45.5167 -73.0500 72° East 540 621 37,000  Level Montreal Center
07:57PM 45.5667 -72.8333 70° East 530 610 37,000  Level Montreal Center
07:58PM 45.6167 -72.6333 69° East 530 610 37,000  Level Montreal Center
07:59PM 45.6667 -72.4500 70° East 530 610 37,000  Level Montreal Center
08:00PM 45.7167 -72.2500 70° East 530 610 37,000  Level Montreal Center
08:01PM 45.7667 -72.0500 72° East 530 610 37,000  Level Montreal Center
08:02PM 45.8167 -71.8333 76° East 530 610 37,000  Level Montreal Center
08:03PM 45.8500 -71.6333 60° Northeast 530 610 37,000  Level Montreal Center
08:04PM 45.9167 -71.4667 78° East 530 610 37,000  Level Montreal Center
08:05PM 45.9500 -71.2333 69° East 540 621 37,000  Level Montreal Center
08:06PM 46.0000 -71.0500 73° East 540 621 37,000  Level Montreal Center
08:07PM 46.0500 -70.8167 70° East 530 610 37,000  Level Montreal Center
08:08PM 46.1000 -70.6167 70° East 530 610 37,000  Level Montreal Center
08:09PM 46.1500 -70.4167 70° East 530 610 37,000  Level Montreal Center
08:10PM 46.2000 -70.2167 76° East 530 610 37,000  Level Montreal Center
08:11PM 46.2333 -70.0167 70° East 530 610 37,000  Level Montreal Center
08:12PM 46.2833 -69.8167 70° East 530 610 37,000  Level Montreal Center
08:13PM 46.3333 -69.6167 69° East 530 610 37,000  Level Montreal Center
08:14PM 46.3919 -69.3992 73° East 525 604 37,000  Level Boston Center
08:15PM 46.4344 -69.1950 72° East 525 604 37,000  Level Boston Center
08:16PM 46.4750 -69.0147 73° East 525 604 37,000  Level Boston Center
08:17PM 46.5189 -68.8100 74° East 525 604 37,000  Level Boston Center
08:18PM 46.5603 -68.6053 74° East 525 604 37,000  Level Boston Center
08:19PM 46.6031 -68.3939 72° East 530 610 37,000  Level Boston Center
08:20PM 46.6481 -68.1942 74° East 525 604 37,000  Level Boston Center
08:21PM 46.6917 -67.9639 74° East 530 610 37,000  Level Boston Center
08:22PM 46.7333 -67.7544 73° East 530 610 37,000  Level Boston Center
08:23PM 46.7769 -67.5447 74° East 530 610 37,000  Level Boston Center
08:24PM 46.8161 -67.3381 73° East 530 610 37,000  Level Boston Center
08:25PM 46.8572 -67.1369 86° East 525 604 37,000  Level Boston Center
08:26PM 46.8667 -66.9167 83° East 520 598 37,000  Level Moncton Center
08:27PM 46.8833 -66.7000 76° East 520 598 37,000  Level Moncton Center
08:28PM 46.9167 -66.5000 83° East 530 610 37,000  Level Moncton Center
08:29PM 46.9333 -66.2833 83° East 530 610 37,000  Level Moncton Center
08:30PM 46.9500 -66.0667 76° East 530 610 37,000  Level Moncton Center
08:31PM 46.9833 -65.8667 83° East 520 598 37,000  Level Moncton Center
08:32PM 47.0000 -65.6500 77° East 520 598 37,000  Level Moncton Center
08:33PM 47.0333 -65.4333 84° East 520 598 37,000  Level Moncton Center
08:34PM 47.0500 -65.2000 82° East 530 610 37,000  Level Moncton Center
08:35PM 47.0667 -65.0167 84° East 520 598 37,000  Level Moncton Center
08:36PM 47.0833 -64.7833 83° East 520 598 37,000  Level Moncton Center
08:37PM 47.1000 -64.5667 83° East 520 598 37,000  Level Moncton Center
08:38PM 47.1167 -64.3667 83° East 520 598 37,000  Level Moncton Center
08:39PM 47.1333 -64.1500 83° East 520 598 37,000  Level Moncton Center
08:40PM 47.1500 -63.9500 76° East 520 598 37,000  Level Moncton Center
08:41PM 47.1833 -63.7500 83° East 520 598 37,000  Level Moncton Center
08:42PM 47.2000 -63.5333 76° East 520 598 37,000  Level Moncton Center
08:43PM 47.2333 -63.3333 90° East 520 598 37,000  Level Moncton Center
08:44PM 47.2333 -63.1167 77° East 520 598 37,000  Level Moncton Center
08:45PM 47.2667 -62.9000 83° East 520 598 37,000  Level Moncton Center
08:46PM 47.2833 -62.7000 84° East 520 598 37,000  Level Moncton Center
08:47PM 47.3000 -62.4667 76° East 520 598 37,000  Level Moncton Center
08:48PM 47.3333 -62.2667 90° East 520 598 37,000  Level Moncton Center
08:49PM 47.3333 -62.0500 64° Northeast 520 598 37,000  Level Moncton Center
08:50PM 47.3667 -61.9500 83° East 520 598 37,000  Level Gander Center
08:51PM 47.3833 -61.7333 83° East 520 598 37,000  Level Gander Center
08:52PM 47.4000 -61.5333 84° East 520 598 37,000  Level Gander Center
08:53PM 47.4167 -61.3000 82° East 510 587 37,000  Level Gander Center
08:54PM 47.4333 -61.1167 84° East 520 598 37,000  Level Gander Center
08:55PM 47.4500 -60.8833 83° East 520 598 37,000  Level Gander Center
08:56PM 47.4667 -60.6833 83° East 520 598 37,000  Level Gander Center
08:57PM 47.4833 -60.4667 90° East 520 598 37,000  Level Gander Center
08:58PM 47.4833 -60.2500 83° East 530 610 37,000  Level Gander Center
08:59PM 47.5000 -60.0500 84° East 520 598 37,000  Level Gander Center
09:00PM 47.5167 -59.8167 83° East 520 598 37,000  Level Gander Center
09:01PM 47.5333 -59.6167 83° East 520 598 37,000  Level Gander Center
09:02PM 47.5500 -59.4000 83° East 510 587 37,000  Level Gander Center
09:03PM 47.5667 -59.2000 83° East 510 587 37,000  Level Gander Center
09:04PM 47.5833 -58.9833 83° East 510 587 37,000  Level Gander Center
09:05PM 47.6000 -58.7833 84° East 510 587 37,000  Level Gander Center
09:06PM 47.6167 -58.5500 90° East 510 587 37,000  Level Gander Center
09:07PM 47.6167 -58.3500 83° East 510 587 37,000  Level Gander Center
09:08PM 47.6333 -58.1333 83° East 510 587 37,000  Level Gander Center
09:09PM 47.6500 -57.9333 90° East 510 587 37,000  Level Gander Center
09:10PM 47.6500 -57.7333 83° East 510 587 37,000  Level Gander Center
09:11PM 47.6667 -57.5167 83° East 510 587 37,000  Level Gander Center
09:12PM 47.6833 -57.3167 90° East 510 587 37,000  Level Gander Center
09:13PM 47.6833 -57.1167 83° East 510 587 37,000  Level Gander Center
09:14PM 47.7000 -56.9167 84° East 510 587 37,000  Level Gander Center
09:15PM 47.7167 -56.6833 83° East 510 587 37,000  Level Gander Center
09:16PM 47.7333 -56.4833 83° East 510 587 37,000  Level Gander Center
09:17PM 47.7500 -56.2833 90° East 500 575 37,000  Level Gander Center
09:18PM 47.7500 -56.0667 83° East 510 587 37,000  Level Gander Center
09:19PM 47.7667 -55.8667 84° East 510 587 37,000  Level Gander Center
09:20PM 47.7833 -55.6333 83° East 510 587 37,000  Level Gander Center
09:21PM 47.8000 -55.4333 90° East 510 587 37,000  Level Gander Center
09:22PM 47.8000 -55.2333 83° East 500 575 37,000  Level Gander Center
09:23PM 47.8167 -55.0333 83° East 500 575 37,000  Level Gander Center
09:24PM 47.8333 -54.8333 84° East 500 575 37,000  Level Gander Center
09:25PM 47.8500 -54.6000 90° East 500 575 37,000  Level Gander Center
09:26PM 47.8500 -54.4000 90° East 500 575 37,000  Level Gander Center
09:27PM 47.8500 -54.1833 76° East 500 575 37,000  Level Gander Center
09:28PM 47.8833 -53.9833 90° East 500 575 37,000  Level Gander Center
09:29PM 47.8833 -53.7833 90° East 500 575 37,000  Level Gander Center
09:30PM 47.8833 -53.5833 83° East 500 575 37,000 180 Level Gander Center
09:31PM 47.9000 -53.3667 86° East 510 587 37,400 420 Climbing Gander Center
09:33PM 47.9167 -52.9500 90° East 510 587 38,400 360 Climbing Gander Center
09:34PM 47.9167 -52.7500 90° East 510 587 38,600 300 Climbing Gander Center
09:35PM 47.9167 -52.5167 83° East 510 587 39,000 180 Climbing Gander Center
09:36PM 47.9333 -52.3167 90° East 520 598 39,000  Level Gander Center
09:37PM 47.9333 -52.0833 83° East 520 598 39,000  Level Gander Center
09:38PM 47.9500 -51.8833 90° East 520 598 39,000  Level Gander Center
09:39PM 47.9500 -51.6667 84° East 520 598 39,000  Level Gander Center
09:40PM 47.9667 -51.4333 90° East 520 598 39,000  Level Gander Center
09:41PM 47.9667 -51.2333 84° East 520 598 39,000  Level Gander Center
09:42PM 47.9833 -51.0000 90° East 520 598 39,000  Level Gander Center
09:43PM 47.9833 -50.8000 96° East 530 610 39,000  Level Gander Center
09:44PM 47.9667 -50.5833 84° East 530 610 39,000  Level Gander Center
09:45PM 47.9833 -50.3500 90° East 530 610 39,000  Level Gander Center
09:46PM 47.9833 -50.1500 84° East 520 598 39,000  Level Gander Center
09:47PM 48.0000 -49.9167 71° East 530 610 39,000  Level Gander Center
09:48PM 48.0500 -49.7000 69° East 530 610 39,000  Level Gander Center
09:49PM 48.1000 -49.5000 83° East 540 621 39,000  Level Gander Center
09:50PM 48.1167 -49.2833 61° Northeast 530 610 39,000  Level Gander Center
09:51PM 48.1833 -49.1000 73° East 530 610 39,000  Level Gander Center
09:52PM 48.2333 -48.8500 68° East 530 610 39,000  Level Gander Center
09:53PM 48.2833 -48.6667 71° East 530 610 39,000  Level Gander Center
09:54PM 48.3333 -48.4500 69° East 530 610 39,000  Level Gander Center
09:55PM 48.3833 -48.2500 76° East 530 610 39,000  Level Gander Center
09:56PM 48.4167 -48.0500 67° East 520 598 39,000  Level Gander Center
09:57PM 48.4833 -47.8167 75° East 520 598 39,000  Level Gander Center
09:58PM 48.5167 -47.6333 71° East 520 598 39,000  Level Gander Center
09:59PM 48.5667 -47.4167 68° East 520 598 39,000  Level Gander Center
10:00PM 48.6167 -47.2333 76° East 520 598 39,000  Level Gander Center
10:01PM 48.6500 -47.0333 65° Northeast 520 598 39,000  Level Gander Center
10:02PM 48.7167 -46.8167 82° East 520 598 39,000  Level Gander Center
10:03PM 48.7333 -46.6333 71° East 520 598 39,000  Level Gander Center
10:10PM 49.1073 -45.2873 72° East  Level FlightAware Approximate
10:11PM 49.1578 -45.0993 73° East  Level FlightAware Approximate
10:12PM 49.2081 -44.9108 73° East  Level FlightAware Approximate
10:13PM 49.2580 -44.7219 73° East  Level FlightAware Approximate
10:14PM 49.3077 -44.5327 73° East  Level FlightAware Approximate
10:15PM 49.3570 -44.3430 73° East  Level FlightAware Approximate
10:16PM 49.4061 -44.1530 73° East  Level FlightAware Approximate
10:17PM 49.4548 -43.9627 73° East  Level FlightAware Approximate
10:18PM 49.5032 -43.7719 74° East  Level FlightAware Approximate
10:19PM 49.5513 -43.5808 74° East  Level FlightAware Approximate
10:20PM 49.5990 -43.3893 74° East  Level FlightAware Approximate
10:21PM 49.6465 -43.1974 74° East  Level FlightAware Approximate
10:22PM 49.6936 -43.0051 74° East  Level FlightAware Approximate
10:23PM 49.7405 -42.8125 75° East  Level FlightAware Approximate
10:24PM 49.7870 -42.6195 75° East  Level FlightAware Approximate
10:25PM 49.8331 -42.4261 75° East  Level FlightAware Approximate
10:26PM 49.8790 -42.2324 75° East  Level FlightAware Approximate
10:27PM 49.9245 -42.0383 75° East  Level FlightAware Approximate
10:28PM 49.9697 -41.8438 75° East  Level FlightAware Approximate
10:29PM 50.0146 -41.6489 76° East  Level FlightAware Approximate
10:30PM 50.0592 -41.4538 76° East  Level FlightAware Approximate
10:31PM 50.1034 -41.2582 76° East  Level FlightAware Approximate
10:32PM 50.1473 -41.0623 76° East  Level FlightAware Approximate
10:33PM 50.1909 -40.8660 76° East  Level FlightAware Approximate
10:34PM 50.2341 -40.6693 76° East  Level FlightAware Approximate
10:35PM 50.2770 -40.4724 77° East  Level FlightAware Approximate
10:36PM 50.3126 -40.2716 77° East  Level FlightAware Approximate
10:37PM 50.3478 -40.0706 77° East  Level FlightAware Approximate
10:38PM 50.3826 -39.8693 77° East  Level FlightAware Approximate
10:39PM 50.4171 -39.6677 77° East  Level FlightAware Approximate
10:40PM 50.4512 -39.4658 77° East  Level FlightAware Approximate
10:41PM 50.4850 -39.2636 78° East  Level FlightAware Approximate
10:42PM 50.5185 -39.0611 78° East  Level FlightAware Approximate
10:43PM 50.5515 -38.8584 78° East  Level FlightAware Approximate
10:44PM 50.5843 -38.6553 78° East  Level FlightAware Approximate
10:45PM 50.6166 -38.4520 78° East  Level FlightAware Approximate
10:46PM 50.6487 -38.2484 78° East  Level FlightAware Approximate
10:47PM 50.6803 -38.0445 79° East  Level FlightAware Approximate
10:48PM 50.7117 -37.8403 79° East  Level FlightAware Approximate
10:49PM 50.7426 -37.6359 79° East  Level FlightAware Approximate
10:50PM 50.7732 -37.4312 79° East  Level FlightAware Approximate
10:51PM 50.8035 -37.2262 79° East  Level FlightAware Approximate
10:52PM 50.8333 -37.0210 79° East  Level FlightAware Approximate
10:53PM 50.8629 -36.8155 80° East  Level FlightAware Approximate
10:54PM 50.8920 -36.6098 80° East  Level FlightAware Approximate
10:55PM 50.9208 -36.4038 80° East  Level FlightAware Approximate
10:56PM 50.9492 -36.1975 80° East  Level FlightAware Approximate
10:57PM 50.9773 -35.9910 80° East  Level FlightAware Approximate
10:58PM 51.0050 -35.7842 81° East  Level FlightAware Approximate
10:59PM 51.0324 -35.5772 81° East  Level FlightAware Approximate
11:00PM 51.0593 -35.3700 81° East  Level FlightAware Approximate
11:01PM 51.0859 -35.1625 81° East  Level FlightAware Approximate
11:02PM 51.1122 -34.9548 81° East  Level FlightAware Approximate
11:03PM 51.1381 -34.7468 81° East  Level FlightAware Approximate
11:04PM 51.1636 -34.5386 82° East  Level FlightAware Approximate
11:05PM 51.1887 -34.3302 82° East  Level FlightAware Approximate
11:06PM 51.2134 -34.1216 82° East  Level FlightAware Approximate
11:07PM 51.2378 -33.9127 82° East  Level FlightAware Approximate
11:08PM 51.2618 -33.7036 82° East  Level FlightAware Approximate
11:09PM 51.2855 -33.4943 82° East  Level FlightAware Approximate
11:10PM 51.3088 -33.2848 83° East  Level FlightAware Approximate
11:11PM 51.3317 -33.0751 83° East  Level FlightAware Approximate
11:12PM 51.3542 -32.8651 83° East  Level FlightAware Approximate
11:13PM 51.3763 -32.6550 83° East  Level FlightAware Approximate
11:14PM 51.3981 -32.4446 83° East  Level FlightAware Approximate
11:15PM 51.4195 -32.2341 84° East  Level FlightAware Approximate
11:16PM 51.4405 -32.0234 84° East  Level FlightAware Approximate
11:17PM 51.4612 -31.8124 84° East  Level FlightAware Approximate
11:18PM 51.4814 -31.6013 84° East  Level FlightAware Approximate
11:19PM 51.5013 -31.3900 84° East  Level FlightAware Approximate
11:20PM 51.5208 -31.1785 85° East  Level FlightAware Approximate
11:21PM 51.5399 -30.9669 85° East  Level FlightAware Approximate
11:22PM 51.5587 -30.7550 85° East  Level FlightAware Approximate
11:23PM 51.5770 -30.5430 85° East  Level FlightAware Approximate
11:24PM 51.5950 -30.3308 85° East  Level FlightAware Approximate
11:25PM 51.6126 -30.1185 85° East  Level FlightAware Approximate
11:26PM 51.6253 -29.9052 86° East  Level FlightAware Approximate
11:27PM 51.6376 -29.6917 86° East  Level FlightAware Approximate
11:28PM 51.6495 -29.4782 86° East  Level FlightAware Approximate
11:29PM 51.6610 -29.2645 86° East  Level FlightAware Approximate
11:30PM 51.6722 -29.0507 86° East  Level FlightAware Approximate
11:31PM 51.6829 -28.8368 86° East  Level FlightAware Approximate
11:32PM 51.6933 -28.6229 87° East  Level FlightAware Approximate
11:33PM 51.7033 -28.4088 87° East  Level FlightAware Approximate
11:34PM 51.7128 -28.1946 87° East  Level FlightAware Approximate
11:35PM 51.7220 -27.9804 87° East  Level FlightAware Approximate
11:36PM 51.7308 -27.7660 87° East  Level FlightAware Approximate
11:37PM 51.7393 -27.5516 88° East  Level FlightAware Approximate
11:38PM 51.7473 -27.3371 88° East  Level FlightAware Approximate
11:39PM 51.7549 -27.1225 88° East  Level FlightAware Approximate
11:40PM 51.7622 -26.9079 88° East  Level FlightAware Approximate
11:41PM 51.7690 -26.6932 88° East  Level FlightAware Approximate
11:42PM 51.7755 -26.4784 88° East  Level FlightAware Approximate
11:43PM 51.7816 -26.2636 89° East  Level FlightAware Approximate
11:44PM 51.7872 -26.0487 89° East  Level FlightAware Approximate
11:45PM 51.7925 -25.8337 89° East  Level FlightAware Approximate
11:46PM 51.7974 -25.6187 89° East  Level FlightAware Approximate
11:47PM 51.8019 -25.4037 89° East  Level FlightAware Approximate
11:48PM 51.8060 -25.1886 90° East  Level FlightAware Approximate
11:49PM 51.8097 -24.9735 90° East  Level FlightAware Approximate
11:50PM 51.8131 -24.7584 90° East  Level FlightAware Approximate
11:51PM 51.8160 -24.5432 90° East  Level FlightAware Approximate
11:52PM 51.8185 -24.3280 90° East  Level FlightAware Approximate
11:53PM 51.8207 -24.1127 90° East  Level FlightAware Approximate
11:54PM 51.8224 -23.8975 91° East  Level FlightAware Approximate
11:55PM 51.8238 -23.6822 91° East  Level FlightAware Approximate
11:56PM 51.8248 -23.4670 91° East  Level FlightAware Approximate
11:57PM 51.8253 -23.2517 91° East  Level FlightAware Approximate
11:58PM 51.8255 -23.0364 91° East  Level FlightAware Approximate
11:59PM 51.8253 -22.8211 92° East  Level FlightAware Approximate
12:00AM 51.8247 -22.6058 92° East  Level FlightAware Approximate
12:01AM 51.8237 -22.3906 92° East  Level FlightAware Approximate
12:02AM 51.8223 -22.1753 92° East  Level FlightAware Approximate
12:03AM 51.8205 -21.9601 92° East  Level FlightAware Approximate
12:04AM 51.8184 -21.7448 92° East  Level FlightAware Approximate
12:05AM 51.8158 -21.5296 93° East  Level FlightAware Approximate
12:06AM 51.8129 -21.3145 93° East  Level FlightAware Approximate
12:07AM 51.8095 -21.0993 93° East  Level FlightAware Approximate
12:08AM 51.8058 -20.8842 93° East  Level FlightAware Approximate
12:09AM 51.8016 -20.6691 93° East  Level FlightAware Approximate
12:10AM 51.7971 -20.4541 94° East  Level FlightAware Approximate
12:11AM 51.7922 -20.2391 94° East  Level FlightAware Approximate
12:12AM 51.7821 -20.0246 94° East  Level FlightAware Approximate
12:13AM 51.7716 -19.8102 94° East  Level FlightAware Approximate
12:14AM 51.7607 -19.5960 94° East  Level FlightAware Approximate
12:15AM 51.7495 -19.3818 94° East  Level FlightAware Approximate
12:16AM 51.7378 -19.1677 95° East  Level FlightAware Approximate
12:17AM 51.7258 -18.9538 95° East  Level FlightAware Approximate
12:18AM 51.7133 -18.7399 95° East  Level FlightAware Approximate
12:19AM 51.7005 -18.5262 95° East  Level FlightAware Approximate
12:20AM 51.6873 -18.3126 95° East  Level FlightAware Approximate
12:21AM 51.6737 -18.0991 95° East  Level FlightAware Approximate
12:22AM 51.6598 -17.8858 95° East  Level FlightAware Approximate
12:23AM 51.6454 -17.6726 96° East  Level FlightAware Approximate
12:24AM 51.6306 -17.4595 96° East  Level FlightAware Approximate
12:25AM 51.6155 -17.2466 96° East  Level FlightAware Approximate
12:26AM 51.6000 -17.0338 96° East  Level FlightAware Approximate
12:27AM 51.5841 -16.8211 96° East  Level FlightAware Approximate
12:28AM 51.5678 -16.6087 96° East  Level FlightAware Approximate
12:29AM 51.5511 -16.3963 97° East  Level FlightAware Approximate
12:30AM 51.5341 -16.1841 97° East  Level FlightAware Approximate
12:31AM 51.5166 -15.9721 97° East  Level FlightAware Approximate
12:32AM 51.4988 -15.7603 97° East  Level FlightAware Approximate
12:33AM 51.4806 -15.5486 97° East  Level FlightAware Approximate
12:34AM 51.4620 -15.3371 97° East  Level FlightAware Approximate
12:35AM 51.4431 -15.1257 98° East  Level FlightAware Approximate
12:36AM 51.4237 -14.9145 98° East  Level FlightAware Approximate
12:37AM 51.4040 -14.7036 98° East  Level FlightAware Approximate
12:38AM 51.3839 -14.4928 98° East  Level FlightAware Approximate
12:39AM 51.3634 -14.2822 98° East  Level FlightAware Approximate
12:40AM 51.3418 -14.0719 98° East  Level FlightAware Approximate
12:41AM 51.3197 -13.8619 98° East  Level FlightAware Approximate
12:42AM 51.2973 -13.6521 99° East  Level FlightAware Approximate
12:43AM 51.2745 -13.4425 99° East  Level FlightAware Approximate
12:44AM 51.2529 -13.2478 99° East  Level FlightAware Approximate
12:45AM 51.2311 -13.0532 99° East  Level FlightAware Approximate
12:46AM 51.2089 -12.8587 99° East  Level FlightAware Approximate
12:47AM 51.1864 -12.6645 99° East  Level FlightAware Approximate
12:48AM 51.1635 -12.4705 99° East  Level FlightAware Approximate
12:49AM 51.1404 -12.2766 99° East  Level FlightAware Approximate
12:50AM 51.1169 -12.0830 100° East  Level FlightAware Approximate
12:51AM 51.0931 -11.8895 100° East  Level FlightAware Approximate
12:52AM 51.0690 -11.6963 100° East  Level FlightAware Approximate
12:53AM 51.0446 -11.5032 100° East  Level FlightAware Approximate
12:54AM 51.0198 -11.3104 100° East  Level FlightAware Approximate
12:55AM 50.9947 -11.1178 100° East  Level FlightAware Approximate
12:56AM 51.0489 -10.9428 101° East  Level FlightAware Approximate
12:57AM 51.0257 -10.7494 101° East  Level FlightAware Approximate
12:58AM 51.0022 -10.5563 101° East  Level FlightAware Approximate
12:59AM 50.9783 -10.3633 102° East  Level FlightAware Approximate
01:00AM 50.9542 -10.1706 102° East  Level FlightAware Approximate
01:01AM 50.9297 -9.9780 102° East  Level FlightAware Approximate
01:02AM 50.9049 -9.7857 102° East  Level FlightAware Approximate
01:03AM 50.8798 -9.5935 102° East  Level FlightAware Approximate
01:04AM 50.8544 -9.4016 102° East  Level FlightAware Approximate
01:05AM 50.8286 -9.2099 102° East  Level FlightAware Approximate
01:06AM 50.8026 -9.0184 103° East  Level FlightAware Approximate
01:07AM 50.7762 -8.8271 103° East  Level FlightAware Approximate
01:08AM 50.7495 -8.6360 103° East  Level FlightAware Approximate
01:09AM 50.7225 -8.4452 103° East  Level FlightAware Approximate
01:10AM 50.6952 -8.2545 103° East  Level FlightAware Approximate
01:11AM 50.6676 -8.0641 103° East  Level FlightAware Approximate
01:12AM 50.5628 -7.9773 102° East  Level FlightAware Approximate
01:13AM 50.5371 -7.7867 102° East  Level FlightAware Approximate
01:14AM 50.5112 -7.5964 102° East  Level FlightAware Approximate
01:15AM 50.4849 -7.4062 103° East  Level FlightAware Approximate
01:16AM 50.4584 -7.2163 103° East  Level FlightAware Approximate
01:17AM 50.4315 -7.0265 103° East  Level FlightAware Approximate
01:18AM 50.4043 -6.8370 103° East  Level FlightAware Approximate
01:19AM 50.3768 -6.6477 103° East  Level FlightAware Approximate
01:20AM 50.3490 -6.4587 103° East  Level FlightAware Approximate
01:21AM 50.3209 -6.2698 104° East  Level FlightAware Approximate
01:22AM 50.2933 -6.0809 104° East  Level FlightAware Approximate
01:23AM 50.2654 -5.8922 104° East  Level FlightAware Approximate
01:24AM 50.2371 -5.7037 104° East  Level FlightAware Approximate
01:25AM 50.1275 -5.6195 102° East  Level FlightAware Approximate
01:26AM 50.1058 -5.4294 102° East  Level FlightAware Approximate
01:27AM 50.0837 -5.2396 102° East  Level FlightAware Approximate
01:28AM 50.0613 -5.0499 103° East  Level FlightAware Approximate
01:29AM 50.0386 -4.8604 103° East  Level FlightAware Approximate
01:30AM 50.0167 -4.6708 103° East  Level FlightAware Approximate
01:31AM 49.9944 -4.4814 104° East  Level FlightAware Approximate
01:32AM 49.9719 -4.2921 104° East  Level FlightAware Approximate
01:33AM 49.9497 -4.1028 105° East  Level FlightAware Approximate
01:34AM 49.9272 -3.9137 105° East  Level FlightAware Approximate
01:35AM 49.9054 -3.7245 106° East  Level FlightAware Approximate
01:36AM 49.8833 -3.5354 107° East  Level FlightAware Approximate
01:37AM 49.8609 -3.3466 109° East  Level FlightAware Approximate
01:38AM 49.8382 -3.1579 110° East  Level FlightAware Approximate
01:39AM 49.8152 -2.9693 113° Southeast  Level FlightAware Approximate
01:40AM 49.7919 -2.7810 119° Southeast  Level FlightAware Approximate
01:45AM 49.6447 -2.3687 101° East 458 527 40,000  Level FlightAware ADS-B
01:46AM 49.6283 -2.2355 101° East 458 527 40,000  Level FlightAware ADS-B
01:46AM 49.6144 -2.1238 101° East 456 525 40,000  Level FlightAware ADS-B
01:47AM 49.6016 -2.0213 101° East 454 522 40,000  Level FlightAware ADS-B
01:47AM 49.5876 -1.9108 101° East 452 520 40,000  Level FlightAware ADS-B
01:48AM 49.5740 -1.8036 101° East 451 519 40,000  Level FlightAware ADS-B
01:49AM 49.5607 -1.6998 101° East 453 521 40,000  Level FlightAware ADS-B
01:49AM 49.5485 -1.6053 101° East 453 521 40,000  Level FlightAware ADS-B
01:50AM 49.5353 -1.5035 101° East 454 522 40,000 -240 Level FlightAware ADS-B
01:50AM 49.5223 -1.4045 101° East 455 524 39,800 -720 Descending FlightAware ADS-B
01:51AM 49.5095 -1.3074 102° East 445 512 39,300 -1,200 Descending FlightAware ADS-B
01:51AM 49.4959 -1.2049 102° East 433 498 38,500 -1,800 Descending FlightAware ADS-B
01:52AM 49.4743 -1.0444 101° East 430 495 36,700 -2,040 Descending FlightAware ADS-B
02:00AM 49.2891 0.4099 101° East  Level FlightAware Approximate
02:01AM 49.2650 0.5995 99° East  Level FlightAware Approximate
02:02AM 49.2453 0.7891 102° East  Level FlightAware Approximate
02:03AM 49.2201 0.9782 102° East  Level FlightAware Approximate
02:04AM 49.1945 1.1671 103° East  Level FlightAware Approximate
02:05AM 49.1662 1.3538 102° East  Level FlightAware Approximate
02:06AM 49.1406 1.5414 103° East  Level FlightAware Approximate
02:07AM 49.1132 1.7281 102° East  Level FlightAware Approximate
02:08AM 49.0874 1.9154 102° East  Level FlightAware Approximate
02:09AM 49.0613 2.1024 103° East  Level FlightAware Approximate
02:10AM 49.0336 2.2828 101° East  Level FlightAware Approximate
02:11AM 49.0090 2.4702 86° East  Level FlightAware Approximate
02:12AM 49.0179 2.6607 263° West  Level Estimated
02:13AM 49.0044 2.5028 75° East  Level FlightAware Approximate
02:14AM 49.0371 2.6872 255° West  Level Estimated
02:15AM 49.0044 2.5028 75° East  Level Estimated
02:16AM 49.0371 2.6872 255° West  Level Estimated
02:17AM 49.0044 2.5028 75° East  Level Estimated
02:18AM 49.0371 2.6872 250° West  Level Estimated
02:19AM 49.0000 2.5333 41° Northeast  Level FlightAware Approximate
02:20AM 49.0951 2.6577 221° Southwest  Level Estimated
02:21AM 49.0011 2.5348 41° Northeast  Level Estimated
02:22AM 49.0951 2.6577 221° Southwest  Level Estimated
02:23AM 49.0011 2.5348 41° Northeast  Level Estimated
02:24AM 49.0951 2.6577 221° Southwest  Level Estimated
02:25AM 49.0000 2.5333 41° Northeast  Level FlightAware Approximate
02:26AM 49.0940 2.6562 221° Southwest  Level Estimated
02:27AM 49.0000 2.5333 41° Northeast  Level FlightAware Approximate
02:28AM 49.0940 2.6562 221° Southwest  Level Estimated
02:29AM 49.0000 2.5333 41° Northeast  Level FlightAware Approximate
02:30AM 49.0940 2.6562 41° Northeast  Level Estimated